sensor_id;sensor_type;location;lat;lon;timestamp;pressure;altitude;pressure_sealevel;temperature;humidity
1472;BME280;963;42.644;23.336;2024-03-07T00:01:46;93976.59;;;9.65;100.00
1472;BME280;963;42.644;23.336;2024-03-07T00:04:12;93980.81;;;9.69;100.00
1472;BME280;963;42.644;23.336;2024-03-07T00:06:37;93982.44;;;9.78;100.00
1472;BME280;963;42.644;23.336;2024-03-07T00:09:03;93979.50;;;9.83;99.93
1472;BME280;963;42.644;23.336;2024-03-07T00:11:28;93963.66;;;9.76;98.90
1472;BME280;963;42.644;23.336;2024-03-07T00:13:55;93985.94;;;9.89;97.95
1472;BME280;963;42.644;23.336;2024-03-07T00:16:21;93962.59;;;9.80;98.47
1472;BME280;963;42.644;23.336;2024-03-07T00:18:46;93973.22;;;9.91;97.33
1472;BME280;963;42.644;23.336;2024-03-07T00:21:11;93958.84;;;9.81;97.54
1472;BME280;963;42.644;23.336;2024-03-07T00:23:37;93961.59;;;9.92;97.73
1472;BME280;963;42.644;23.336;2024-03-07T00:26:03;93956.22;;;9.81;98.24
1472;BME280;963;42.644;23.336;2024-03-07T00:28:29;93949.81;;;9.79;98.41
1472;BME280;963;42.644;23.336;2024-03-07T00:30:58;93955.31;;;9.70;98.39
1472;BME280;963;42.644;23.336;2024-03-07T00:33:24;93959.50;;;9.75;97.99
1472;BME280;963;42.644;23.336;2024-03-07T00:35:50;93955.41;;;9.77;98.28
1472;BME280;963;42.644;23.336;2024-03-07T00:38:16;93954.16;;;9.67;99.02
1472;BME280;963;42.644;23.336;2024-03-07T00:40:41;93953.13;;;9.76;98.68
1472;BME280;963;42.644;23.336;2024-03-07T00:43:06;93960.72;;;9.81;98.75
1472;BME280;963;42.644;23.336;2024-03-07T00:45:32;93957.06;;;9.62;98.53
1472;BME280;963;42.644;23.336;2024-03-07T00:47:57;93949.25;;;9.66;98.49
1472;BME280;963;42.644;23.336;2024-03-07T00:50:24;93948.50;;;9.39;99.95
1472;BME280;963;42.644;23.336;2024-03-07T00:52:50;93954.88;;;9.38;100.00
1472;BME280;963;42.644;23.336;2024-03-07T00:55:15;93978.19;;;9.43;99.74
1472;BME280;963;42.644;23.336;2024-03-07T00:57:41;93952.28;;;9.42;99.46
1472;BME280;963;42.644;23.336;2024-03-07T01:00:07;93945.66;;;9.51;99.70
1472;BME280;963;42.644;23.336;2024-03-07T01:02:40;93953.34;;;9.37;100.00
1472;BME280;963;42.644;23.336;2024-03-07T01:05:09;93942.44;;;9.35;99.74
1472;BME280;963;42.644;23.336;2024-03-07T01:07:35;93935.44;;;9.20;100.00
1472;BME280;963;42.644;23.336;2024-03-07T01:10:02;93927.31;;;9.02;100.00
1472;BME280;963;42.644;23.336;2024-03-07T01:12:28;93923.69;;;8.87;100.00
1472;BME280;963;42.644;23.336;2024-03-07T01:14:56;93932.97;;;8.81;100.00
1472;BME280;963;42.644;23.336;2024-03-07T01:17:22;93911.13;;;8.73;100.00
1472;BME280;963;42.644;23.336;2024-03-07T01:19:48;93902.63;;;8.57;100.00
1472;BME280;963;42.644;23.336;2024-03-07T01:22:13;93917.81;;;8.71;100.00
1472;BME280;963;42.644;23.336;2024-03-07T01:24:38;93909.59;;;8.72;100.00
1472;BME280;963;42.644;23.336;2024-03-07T01:27:05;93904.31;;;8.69;100.00
1472;BME280;963;42.644;23.336;2024-03-07T01:29:30;93917.00;;;8.90;100.00
1472;BME280;963;42.644;23.336;2024-03-07T01:31:56;93910.94;;;8.86;100.00
1472;BME280;963;42.644;23.336;2024-03-07T01:34:21;93907.09;;;9.02;100.00
1472;BME280;963;42.644;23.336;2024-03-07T01:36:46;93923.81;;;9.17;100.00
1472;BME280;963;42.644;23.336;2024-03-07T01:39:12;93899.44;;;9.17;100.00
1472;BME280;963;42.644;23.336;2024-03-07T01:41:37;93918.03;;;9.31;100.00
1472;BME280;963;42.644;23.336;2024-03-07T01:44:03;93904.78;;;9.24;100.00
1472;BME280;963;42.644;23.336;2024-03-07T01:46:29;93900.63;;;9.23;100.00
1472;BME280;963;42.644;23.336;2024-03-07T01:48:55;93904.63;;;9.39;99.22
1472;BME280;963;42.644;23.336;2024-03-07T01:51:21;93904.97;;;9.12;100.00
1472;BME280;963;42.644;23.336;2024-03-07T01:53:49;93900.53;;;9.16;99.60
1472;BME280;963;42.644;23.336;2024-03-07T01:56:14;93903.38;;;8.58;99.63
1472;BME280;963;42.644;23.336;2024-03-07T01:58:42;93904.63;;;8.44;100.00
1472;BME280;963;42.644;23.336;2024-03-07T02:01:08;93909.47;;;8.42;100.00
1472;BME280;963;42.644;23.336;2024-03-07T02:03:33;93903.53;;;8.26;100.00
1472;BME280;963;42.644;23.336;2024-03-07T02:05:59;93921.25;;;8.75;100.00
1472;BME280;963;42.644;23.336;2024-03-07T02:08:24;93922.66;;;8.92;96.81
1472;BME280;963;42.644;23.336;2024-03-07T02:10:49;93919.44;;;9.02;95.27
1472;BME280;963;42.644;23.336;2024-03-07T02:13:15;93940.91;;;8.62;95.21
1472;BME280;963;42.644;23.336;2024-03-07T02:15:41;93922.38;;;8.74;90.19
1472;BME280;963;42.644;23.336;2024-03-07T02:18:08;93910.25;;;8.66;90.17
1472;BME280;963;42.644;23.336;2024-03-07T02:20:34;93912.22;;;8.95;88.74
1472;BME280;963;42.644;23.336;2024-03-07T02:23:00;93907.56;;;8.85;89.15
1472;BME280;963;42.644;23.336;2024-03-07T02:25:25;93910.72;;;7.71;90.26
1472;BME280;963;42.644;23.336;2024-03-07T02:27:50;93912.31;;;7.41;91.94
1472;BME280;963;42.644;23.336;2024-03-07T02:30:16;93904.88;;;7.43;93.33
1472;BME280;963;42.644;23.336;2024-03-07T02:32:43;93930.13;;;7.35;95.08
1472;BME280;963;42.644;23.336;2024-03-07T02:35:14;93906.41;;;7.09;96.81
1472;BME280;963;42.644;23.336;2024-03-07T02:37:40;93926.34;;;7.33;96.42
1472;BME280;963;42.644;23.336;2024-03-07T02:40:06;93900.97;;;7.17;98.13
1472;BME280;963;42.644;23.336;2024-03-07T02:42:32;93907.03;;;7.06;100.00
1472;BME280;963;42.644;23.336;2024-03-07T02:44:58;93928.31;;;7.55;98.32
1472;BME280;963;42.644;23.336;2024-03-07T02:47:25;93922.50;;;7.81;97.55
1472;BME280;963;42.644;23.336;2024-03-07T02:49:50;93925.47;;;7.99;95.85
1472;BME280;963;42.644;23.336;2024-03-07T02:52:16;93922.72;;;8.11;95.21
1472;BME280;963;42.644;23.336;2024-03-07T02:54:42;93932.25;;;8.19;94.03
1472;BME280;963;42.644;23.336;2024-03-07T02:57:07;93929.91;;;8.33;94.59
1472;BME280;963;42.644;23.336;2024-03-07T02:59:33;93928.84;;;8.38;93.50
1472;BME280;963;42.644;23.336;2024-03-07T03:01:58;93915.53;;;8.46;93.00
1472;BME280;963;42.644;23.336;2024-03-07T03:04:24;93935.19;;;8.37;93.65
1472;BME280;963;42.644;23.336;2024-03-07T03:06:49;93920.56;;;8.55;93.30
1472;BME280;963;42.644;23.336;2024-03-07T03:09:16;93923.66;;;8.61;92.83
1472;BME280;963;42.644;23.336;2024-03-07T03:11:43;93923.66;;;8.61;91.89
1472;BME280;963;42.644;23.336;2024-03-07T03:14:09;93926.44;;;8.71;91.54
1472;BME280;963;42.644;23.336;2024-03-07T03:16:36;93913.28;;;8.68;92.54
1472;BME280;963;42.644;23.336;2024-03-07T03:19:01;93927.22;;;8.72;93.89
1472;BME280;963;42.644;23.336;2024-03-07T03:21:26;93917.41;;;8.69;94.66
1472;BME280;963;42.644;23.336;2024-03-07T03:23:52;93930.69;;;8.80;95.24
1472;BME280;963;42.644;23.336;2024-03-07T03:26:20;93927.91;;;8.69;94.21
1472;BME280;963;42.644;23.336;2024-03-07T03:28:45;93946.50;;;8.83;94.23
1472;BME280;963;42.644;23.336;2024-03-07T03:31:10;93947.25;;;8.84;94.76
1472;BME280;963;42.644;23.336;2024-03-07T03:33:39;93923.88;;;8.75;95.33
1472;BME280;963;42.644;23.336;2024-03-07T03:36:04;93929.19;;;8.78;95.79
1472;BME280;963;42.644;23.336;2024-03-07T03:38:30;93960.41;;;8.87;95.56
1472;BME280;963;42.644;23.336;2024-03-07T03:40:56;93952.28;;;8.92;95.19
1472;BME280;963;42.644;23.336;2024-03-07T03:43:21;93960.16;;;8.92;94.66
1472;BME280;963;42.644;23.336;2024-03-07T03:45:47;93951.97;;;8.97;95.12
1472;BME280;963;42.644;23.336;2024-03-07T03:48:13;93936.00;;;8.83;94.61
1472;BME280;963;42.644;23.336;2024-03-07T03:50:39;93919.97;;;8.65;96.57
1472;BME280;963;42.644;23.336;2024-03-07T03:53:04;93903.13;;;8.43;95.37
1472;BME280;963;42.644;23.336;2024-03-07T03:55:30;93922.19;;;8.63;94.42
1472;BME280;963;42.644;23.336;2024-03-07T03:57:57;93916.25;;;8.66;95.01
1472;BME280;963;42.644;23.336;2024-03-07T04:00:23;93925.41;;;8.76;95.24
1472;BME280;963;42.644;23.336;2024-03-07T04:02:48;93927.72;;;8.81;95.93
1472;BME280;963;42.644;23.336;2024-03-07T04:05:15;93936.34;;;8.82;95.74
1472;BME280;963;42.644;23.336;2024-03-07T04:07:42;93931.47;;;8.80;95.39
1472;BME280;963;42.644;23.336;2024-03-07T04:10:08;93928.38;;;8.74;95.70
1472;BME280;963;42.644;23.336;2024-03-07T04:12:38;93922.97;;;8.64;96.63
1472;BME280;963;42.644;23.336;2024-03-07T04:17:32;93933.16;;;8.50;97.67
1472;BME280;963;42.644;23.336;2024-03-07T04:19:59;93932.63;;;8.60;97.35
1472;BME280;963;42.644;23.336;2024-03-07T04:22:25;93929.50;;;8.54;96.23
1472;BME280;963;42.644;23.336;2024-03-07T04:24:51;93932.72;;;8.25;97.45
1472;BME280;963;42.644;23.336;2024-03-07T04:27:19;93935.66;;;8.42;97.16
1472;BME280;963;42.644;23.336;2024-03-07T04:29:45;93927.13;;;8.45;96.57
1472;BME280;963;42.644;23.336;2024-03-07T04:32:13;93952.91;;;8.63;96.88
1472;BME280;963;42.644;23.336;2024-03-07T04:34:38;93944.91;;;8.56;96.32
1472;BME280;963;42.644;23.336;2024-03-07T04:37:04;93922.16;;;8.21;93.42
1472;BME280;963;42.644;23.336;2024-03-07T04:39:30;93950.69;;;8.26;92.10
1472;BME280;963;42.644;23.336;2024-03-07T04:42:01;93931.66;;;7.71;89.81
1472;BME280;963;42.644;23.336;2024-03-07T04:44:28;93941.22;;;6.97;92.43
1472;BME280;963;42.644;23.336;2024-03-07T04:46:54;93939.69;;;6.96;90.84
1472;BME280;963;42.644;23.336;2024-03-07T04:49:26;93951.69;;;6.97;90.91
1472;BME280;963;42.644;23.336;2024-03-07T04:51:52;93938.69;;;7.01;90.16
1472;BME280;963;42.644;23.336;2024-03-07T04:54:19;93933.88;;;6.12;96.01
1472;BME280;963;42.644;23.336;2024-03-07T04:56:49;93933.47;;;5.85;98.05
1472;BME280;963;42.644;23.336;2024-03-07T04:59:15;93964.25;;;6.32;96.59
1472;BME280;963;42.644;23.336;2024-03-07T05:01:41;93952.19;;;6.00;96.57
1472;BME280;963;42.644;23.336;2024-03-07T05:04:07;93945.41;;;6.11;95.48
1472;BME280;963;42.644;23.336;2024-03-07T05:06:33;93962.91;;;6.10;95.45
1472;BME280;963;42.644;23.336;2024-03-07T05:09:05;93968.81;;;6.35;94.50
1472;BME280;963;42.644;23.336;2024-03-07T05:11:32;93960.56;;;6.33;94.55
1472;BME280;963;42.644;23.336;2024-03-07T05:13:58;93966.19;;;6.35;94.58
1472;BME280;963;42.644;23.336;2024-03-07T05:16:24;93968.22;;;6.14;94.66
1472;BME280;963;42.644;23.336;2024-03-07T05:18:50;93975.44;;;6.05;97.94
1472;BME280;963;42.644;23.336;2024-03-07T05:21:16;93976.97;;;6.06;96.94
1472;BME280;963;42.644;23.336;2024-03-07T05:24:04;93946.34;;;5.78;97.49
1472;BME280;963;42.644;23.336;2024-03-07T05:26:30;93962.03;;;5.54;99.88
1472;BME280;963;42.644;23.336;2024-03-07T05:29:01;93973.38;;;5.86;98.59
1472;BME280;963;42.644;23.336;2024-03-07T05:31:31;93981.53;;;6.09;98.30
1472;BME280;963;42.644;23.336;2024-03-07T05:34:00;93964.56;;;6.31;96.83
1472;BME280;963;42.644;23.336;2024-03-07T05:36:25;93966.06;;;6.32;96.14
1472;BME280;963;42.644;23.336;2024-03-07T05:38:51;93948.53;;;6.16;95.40
1472;BME280;963;42.644;23.336;2024-03-07T05:41:17;93972.13;;;6.48;93.90
1472;BME280;963;42.644;23.336;2024-03-07T05:43:42;93971.25;;;6.72;92.91
1472;BME280;963;42.644;23.336;2024-03-07T05:46:09;93995.28;;;6.93;93.21
1472;BME280;963;42.644;23.336;2024-03-07T05:48:36;93957.00;;;7.01;92.21
1472;BME280;963;42.644;23.336;2024-03-07T05:51:02;93964.00;;;7.12;91.27
1472;BME280;963;42.644;23.336;2024-03-07T05:53:27;93969.41;;;7.19;91.16
1472;BME280;963;42.644;23.336;2024-03-07T05:55:52;93966.69;;;7.00;90.75
1472;BME280;963;42.644;23.336;2024-03-07T05:58:18;93975.13;;;6.94;91.25
1472;BME280;963;42.644;23.336;2024-03-07T06:00:45;93977.16;;;7.00;91.25
1472;BME280;963;42.644;23.336;2024-03-07T06:03:17;94005.59;;;7.17;90.53
1472;BME280;963;42.644;23.336;2024-03-07T06:05:47;93967.13;;;7.18;90.04
1472;BME280;963;42.644;23.336;2024-03-07T06:08:19;93998.41;;;7.14;90.07
1472;BME280;963;42.644;23.336;2024-03-07T06:10:45;93998.09;;;7.16;90.43
1472;BME280;963;42.644;23.336;2024-03-07T06:13:13;93986.34;;;7.26;89.74
1472;BME280;963;42.644;23.336;2024-03-07T06:15:39;93975.31;;;7.16;90.99
1472;BME280;963;42.644;23.336;2024-03-07T06:18:05;93993.00;;;7.55;90.03
1472;BME280;963;42.644;23.336;2024-03-07T06:20:30;94006.25;;;7.46;89.78
1472;BME280;963;42.644;23.336;2024-03-07T06:22:56;94014.50;;;7.01;89.94
1472;BME280;963;42.644;23.336;2024-03-07T06:25:28;94031.16;;;7.08;88.92
1472;BME280;963;42.644;23.336;2024-03-07T06:28:05;94006.09;;;7.07;88.64
1472;BME280;963;42.644;23.336;2024-03-07T06:30:38;94007.69;;;7.28;89.38
1472;BME280;963;42.644;23.336;2024-03-07T06:33:05;93991.31;;;7.31;89.93
1472;BME280;963;42.644;23.336;2024-03-07T06:35:30;94011.06;;;7.44;89.80
1472;BME280;963;42.644;23.336;2024-03-07T06:37:56;94003.81;;;7.53;88.94
1472;BME280;963;42.644;23.336;2024-03-07T06:40:21;94013.75;;;7.32;91.10
1472;BME280;963;42.644;23.336;2024-03-07T06:42:51;94007.16;;;7.69;90.59
1472;BME280;963;42.644;23.336;2024-03-07T06:45:18;94002.75;;;7.73;89.77
1472;BME280;963;42.644;23.336;2024-03-07T06:47:43;93999.44;;;7.76;89.65
1472;BME280;963;42.644;23.336;2024-03-07T06:50:09;94002.63;;;7.50;89.21
1472;BME280;963;42.644;23.336;2024-03-07T06:52:35;94016.81;;;7.34;90.11
1472;BME280;963;42.644;23.336;2024-03-07T06:55:04;94006.09;;;7.23;92.88
1472;BME280;963;42.644;23.336;2024-03-07T06:57:31;94023.38;;;7.59;92.09
1472;BME280;963;42.644;23.336;2024-03-07T06:59:56;94010.63;;;7.58;90.35
1472;BME280;963;42.644;23.336;2024-03-07T07:02:21;94018.63;;;7.80;90.33
1472;BME280;963;42.644;23.336;2024-03-07T07:04:47;94011.41;;;7.93;90.26
1472;BME280;963;42.644;23.336;2024-03-07T07:07:13;94019.88;;;8.06;89.72
1472;BME280;963;42.644;23.336;2024-03-07T07:09:42;94007.06;;;8.01;89.39
1472;BME280;963;42.644;23.336;2024-03-07T07:12:07;94009.78;;;8.24;88.09
1472;BME280;963;42.644;23.336;2024-03-07T07:14:33;93989.72;;;8.31;88.59
1472;BME280;963;42.644;23.336;2024-03-07T07:17:01;93988.91;;;8.27;89.02
1472;BME280;963;42.644;23.336;2024-03-07T07:19:26;93985.59;;;8.30;88.09
1472;BME280;963;42.644;23.336;2024-03-07T07:21:52;94003.09;;;8.26;88.12
1472;BME280;963;42.644;23.336;2024-03-07T07:24:20;93986.16;;;8.39;88.46
1472;BME280;963;42.644;23.336;2024-03-07T07:26:47;93997.34;;;8.36;88.51
1472;BME280;963;42.644;23.336;2024-03-07T07:29:12;93994.03;;;8.59;87.02
1472;BME280;963;42.644;23.336;2024-03-07T07:31:38;93993.03;;;8.48;86.38
1472;BME280;963;42.644;23.336;2024-03-07T07:34:03;93991.75;;;8.38;86.74
1472;BME280;963;42.644;23.336;2024-03-07T07:36:29;94010.13;;;8.22;87.48
1472;BME280;963;42.644;23.336;2024-03-07T07:38:55;93998.81;;;7.99;87.16
1472;BME280;963;42.644;23.336;2024-03-07T07:41:20;94001.97;;;7.89;87.74
1472;BME280;963;42.644;23.336;2024-03-07T07:43:46;93984.91;;;7.79;88.84
1472;BME280;963;42.644;23.336;2024-03-07T07:46:13;93993.69;;;8.06;87.80
1472;BME280;963;42.644;23.336;2024-03-07T07:48:38;94011.94;;;8.18;87.35
1472;BME280;963;42.644;23.336;2024-03-07T07:51:04;93989.19;;;8.41;87.96
1472;BME280;963;42.644;23.336;2024-03-07T07:53:30;93973.25;;;8.50;88.54
1472;BME280;963;42.644;23.336;2024-03-07T07:55:55;93990.81;;;8.69;86.58
1472;BME280;963;42.644;23.336;2024-03-07T07:58:21;94003.53;;;8.67;86.43
1472;BME280;963;42.644;23.336;2024-03-07T08:00:46;93980.00;;;8.32;87.93
1472;BME280;963;42.644;23.336;2024-03-07T08:03:14;93990.47;;;8.70;86.50
1472;BME280;963;42.644;23.336;2024-03-07T08:05:40;93992.63;;;8.65;86.38
1472;BME280;963;42.644;23.336;2024-03-07T08:08:08;93993.69;;;8.83;84.72
1472;BME280;963;42.644;23.336;2024-03-07T08:10:37;93996.16;;;8.95;83.04
1472;BME280;963;42.644;23.336;2024-03-07T08:13:04;94012.66;;;8.96;82.19
1472;BME280;963;42.644;23.336;2024-03-07T08:15:36;94017.88;;;8.73;81.43
1472;BME280;963;42.644;23.336;2024-03-07T08:18:01;94017.09;;;8.53;81.01
1472;BME280;963;42.644;23.336;2024-03-07T08:20:27;94011.69;;;8.62;81.05
1472;BME280;963;42.644;23.336;2024-03-07T08:22:54;93981.16;;;8.54;80.62
1472;BME280;963;42.644;23.336;2024-03-07T08:25:22;94010.69;;;8.70;81.72
1472;BME280;963;42.644;23.336;2024-03-07T08:27:49;94025.28;;;8.90;81.72
1472;BME280;963;42.644;23.336;2024-03-07T08:30:15;94027.34;;;9.00;82.50
1472;BME280;963;42.644;23.336;2024-03-07T08:32:43;94016.69;;;9.13;82.89
1472;BME280;963;42.644;23.336;2024-03-07T08:35:09;94028.06;;;9.20;82.13
1472;BME280;963;42.644;23.336;2024-03-07T08:37:37;94048.00;;;9.25;81.95
1472;BME280;963;42.644;23.336;2024-03-07T08:40:03;94050.06;;;9.35;82.08
1472;BME280;963;42.644;23.336;2024-03-07T08:42:32;94032.09;;;9.37;81.07
1472;BME280;963;42.644;23.336;2024-03-07T08:44:59;94026.78;;;9.33;81.04
1472;BME280;963;42.644;23.336;2024-03-07T08:47:24;94040.59;;;9.07;82.77
1472;BME280;963;42.644;23.336;2024-03-07T08:49:50;94052.06;;;9.22;82.08
1472;BME280;963;42.644;23.336;2024-03-07T08:52:16;94062.97;;;8.82;82.82
1472;BME280;963;42.644;23.336;2024-03-07T08:54:41;94039.50;;;8.89;82.95
1472;BME280;963;42.644;23.336;2024-03-07T08:57:07;94059.75;;;9.31;81.50
1472;BME280;963;42.644;23.336;2024-03-07T08:59:32;94050.47;;;9.37;81.31
1472;BME280;963;42.644;23.336;2024-03-07T09:01:58;94067.44;;;9.43;80.73
1472;BME280;963;42.644;23.336;2024-03-07T09:04:27;94069.47;;;9.53;80.41
1472;BME280;963;42.644;23.336;2024-03-07T09:06:54;94043.31;;;9.60;79.48
1472;BME280;963;42.644;23.336;2024-03-07T09:09:20;94051.84;;;9.77;78.84
1472;BME280;963;42.644;23.336;2024-03-07T09:11:45;94047.44;;;9.84;78.43
1472;BME280;963;42.644;23.336;2024-03-07T09:14:11;94058.28;;;9.83;79.53
1472;BME280;963;42.644;23.336;2024-03-07T09:16:36;94031.63;;;9.81;79.43
1472;BME280;963;42.644;23.336;2024-03-07T09:19:01;94039.25;;;9.89;79.69
1472;BME280;963;42.644;23.336;2024-03-07T09:21:28;94062.25;;;9.69;80.16
1472;BME280;963;42.644;23.336;2024-03-07T09:23:53;94060.91;;;9.83;79.67
1472;BME280;963;42.644;23.336;2024-03-07T09:26:19;94071.94;;;9.92;79.13
1472;BME280;963;42.644;23.336;2024-03-07T09:28:45;94060.91;;;9.83;79.27
1472;BME280;963;42.644;23.336;2024-03-07T09:31:14;94065.38;;;9.79;79.01
1472;BME280;963;42.644;23.336;2024-03-07T09:33:39;94048.53;;;9.83;78.10
1472;BME280;963;42.644;23.336;2024-03-07T09:36:05;94054.59;;;9.87;78.19
1472;BME280;963;42.644;23.336;2024-03-07T09:38:32;94057.44;;;9.75;79.79
1472;BME280;963;42.644;23.336;2024-03-07T09:40:57;94048.66;;;9.90;79.65
1472;BME280;963;42.644;23.336;2024-03-07T09:43:28;94051.31;;;9.94;79.25
1472;BME280;963;42.644;23.336;2024-03-07T09:45:55;94059.13;;;9.64;79.38
1472;BME280;963;42.644;23.336;2024-03-07T09:48:21;94064.34;;;9.87;78.99
1472;BME280;963;42.644;23.336;2024-03-07T09:50:52;94052.03;;;9.91;79.26
1472;BME280;963;42.644;23.336;2024-03-07T09:53:20;94054.88;;;10.05;79.40
1472;BME280;963;42.644;23.336;2024-03-07T09:55:46;94051.22;;;10.13;78.66
1472;BME280;963;42.644;23.336;2024-03-07T09:58:14;94067.03;;;9.41;79.38
1472;BME280;963;42.644;23.336;2024-03-07T10:00:45;94072.91;;;9.80;79.04
1472;BME280;963;42.644;23.336;2024-03-07T10:03:14;94055.06;;;9.93;79.12
1472;BME280;963;42.644;23.336;2024-03-07T10:05:42;94048.66;;;9.90;79.36
1472;BME280;963;42.644;23.336;2024-03-07T10:08:08;94053.53;;;10.18;78.72
1472;BME280;963;42.644;23.336;2024-03-07T10:10:33;94062.19;;;9.92;78.46
1472;BME280;963;42.644;23.336;2024-03-07T10:12:59;94040.84;;;10.20;77.58
1472;BME280;963;42.644;23.336;2024-03-07T10:15:32;94038.72;;;10.33;77.69
1472;BME280;963;42.644;23.336;2024-03-07T10:17:59;94040.84;;;10.50;77.07
1472;BME280;963;42.644;23.336;2024-03-07T10:20:25;94036.00;;;10.56;76.53
1472;BME280;963;42.644;23.336;2024-03-07T10:22:50;94035.88;;;9.89;78.16
1472;BME280;963;42.644;23.336;2024-03-07T10:25:20;94019.69;;;9.87;78.73
1472;BME280;963;42.644;23.336;2024-03-07T10:27:50;94030.31;;;9.94;78.97
1472;BME280;963;42.644;23.336;2024-03-07T10:30:16;94027.72;;;10.24;78.03
1472;BME280;963;42.644;23.336;2024-03-07T10:32:55;94032.91;;;10.47;76.64
1472;BME280;963;42.644;23.336;2024-03-07T10:35:22;94019.50;;;10.59;75.67
1472;BME280;963;42.644;23.336;2024-03-07T10:37:49;94014.13;;;9.92;77.18
1472;BME280;963;42.644;23.336;2024-03-07T10:40:15;94010.59;;;9.54;79.16
1472;BME280;963;42.644;23.336;2024-03-07T10:42:45;94036.34;;;9.45;77.91
1472;BME280;963;42.644;23.336;2024-03-07T10:45:18;94025.53;;;9.04;80.73
1472;BME280;963;42.644;23.336;2024-03-07T10:47:52;94035.28;;;9.27;80.92
1472;BME280;963;42.644;23.336;2024-03-07T10:50:39;94033.25;;;9.17;80.62
1472;BME280;963;42.644;23.336;2024-03-07T10:55:50;94022.75;;;9.66;79.99
1472;BME280;963;42.644;23.336;2024-03-07T11:01:01;94032.34;;;10.04;78.65
1472;BME280;963;42.644;23.336;2024-03-07T11:03:34;94025.75;;;10.17;77.94
1472;BME280;963;42.644;23.336;2024-03-07T11:06:01;94009.09;;;10.06;77.32
1472;BME280;963;42.644;23.336;2024-03-07T11:08:34;93998.38;;;9.65;79.42
1472;BME280;963;42.644;23.336;2024-03-07T11:11:00;94008.78;;;9.85;79.07
1472;BME280;963;42.644;23.336;2024-03-07T11:13:26;94007.56;;;10.05;78.79
1472;BME280;963;42.644;23.336;2024-03-07T11:15:53;94015.22;;;10.17;78.07
1472;BME280;963;42.644;23.336;2024-03-07T11:18:24;94018.47;;;10.33;77.52
1472;BME280;963;42.644;23.336;2024-03-07T11:20:49;94010.69;;;10.14;77.91
1472;BME280;963;42.644;23.336;2024-03-07T11:23:28;94003.25;;;10.20;77.04
1472;BME280;963;42.644;23.336;2024-03-07T11:26:05;94029.50;;;10.16;77.31
1472;BME280;963;42.644;23.336;2024-03-07T11:28:38;94051.44;;;10.27;76.79
1472;BME280;963;42.644;23.336;2024-03-07T11:31:14;94020.50;;;10.17;77.25
1472;BME280;963;42.644;23.336;2024-03-07T11:33:41;94013.44;;;10.21;76.98
1472;BME280;963;42.644;23.336;2024-03-07T11:36:08;93993.13;;;9.92;77.52
1472;BME280;963;42.644;23.336;2024-03-07T11:38:34;94005.91;;;9.18;80.65
1472;BME280;963;42.644;23.336;2024-03-07T11:41:00;94032.31;;;9.51;80.88
1472;BME280;963;42.644;23.336;2024-03-07T11:43:30;93991.09;;;9.55;80.97
1472;BME280;963;42.644;23.336;2024-03-07T11:45:56;94007.00;;;9.17;82.17
1472;BME280;963;42.644;23.336;2024-03-07T11:48:23;94002.72;;;9.54;82.22
1472;BME280;963;42.644;23.336;2024-03-07T11:50:49;94009.94;;;9.61;82.82
1472;BME280;963;42.644;23.336;2024-03-07T11:53:15;93997.56;;;9.88;81.89
1472;BME280;963;42.644;23.336;2024-03-07T11:55:41;93990.09;;;9.63;81.38
1472;BME280;963;42.644;23.336;2024-03-07T11:58:16;93991.16;;;9.09;83.02
1472;BME280;963;42.644;23.336;2024-03-07T12:00:42;93987.00;;;9.31;82.11
1472;BME280;963;42.644;23.336;2024-03-07T12:03:13;93999.41;;;8.89;84.35
1472;BME280;963;42.644;23.336;2024-03-07T12:05:45;93986.41;;;9.19;83.47
1472;BME280;963;42.644;23.336;2024-03-07T12:08:11;93987.69;;;9.28;83.63
1472;BME280;963;42.644;23.336;2024-03-07T12:10:39;94001.50;;;9.48;81.62
1472;BME280;963;42.644;23.336;2024-03-07T12:13:05;93986.94;;;9.77;80.10
1472;BME280;963;42.644;23.336;2024-03-07T12:15:31;93995.84;;;9.99;78.52
1472;BME280;963;42.644;23.336;2024-03-07T12:17:58;93974.94;;;10.06;78.03
1472;BME280;963;42.644;23.336;2024-03-07T12:20:27;93980.59;;;10.08;78.06
1472;BME280;963;42.644;23.336;2024-03-07T12:23:02;93985.00;;;10.30;77.44
1472;BME280;963;42.644;23.336;2024-03-07T12:25:29;93985.84;;;10.38;76.63
1472;BME280;963;42.644;23.336;2024-03-07T12:28:08;93979.88;;;10.11;77.60
1472;BME280;963;42.644;23.336;2024-03-07T12:33:11;93976.38;;;9.74;78.35
1472;BME280;963;42.644;23.336;2024-03-07T12:35:39;93985.94;;;9.62;78.53
1472;BME280;963;42.644;23.336;2024-03-07T12:38:08;93999.59;;;9.45;78.65
1472;BME280;963;42.644;23.336;2024-03-07T12:40:36;93970.81;;;9.52;78.80
1472;BME280;963;42.644;23.336;2024-03-07T12:43:12;93981.81;;;9.88;78.13
1472;BME280;963;42.644;23.336;2024-03-07T12:45:47;93956.06;;;10.00;77.67
1472;BME280;963;42.644;23.336;2024-03-07T12:48:13;93968.84;;;10.28;77.08
1472;BME280;963;42.644;23.336;2024-03-07T12:50:40;93986.63;;;10.12;77.76
1472;BME280;963;42.644;23.336;2024-03-07T12:53:06;93968.44;;;10.00;78.41
1472;BME280;963;42.644;23.336;2024-03-07T12:55:39;93974.19;;;10.39;76.83
1472;BME280;963;42.644;23.336;2024-03-07T12:58:08;93961.81;;;10.40;77.24
1472;BME280;963;42.644;23.336;2024-03-07T13:00:35;93967.22;;;10.50;77.43
1472;BME280;963;42.644;23.336;2024-03-07T13:03:01;93963.06;;;10.49;77.06
1472;BME280;963;42.644;23.336;2024-03-07T13:05:26;93968.13;;;10.31;77.64
1472;BME280;963;42.644;23.336;2024-03-07T13:07:52;93961.81;;;10.40;77.64
1472;BME280;963;42.644;23.336;2024-03-07T13:10:18;93960.91;;;10.25;77.12
1472;BME280;963;42.644;23.336;2024-03-07T13:12:46;93960.63;;;10.33;77.29
1472;BME280;963;42.644;23.336;2024-03-07T13:15:14;93955.94;;;10.20;76.99
1472;BME280;963;42.644;23.336;2024-03-07T13:17:40;93966.69;;;10.38;76.33
1472;BME280;963;42.644;23.336;2024-03-07T13:20:09;93963.03;;;10.46;76.51
1472;BME280;963;42.644;23.336;2024-03-07T13:22:44;93964.44;;;10.40;76.58
1472;BME280;963;42.644;23.336;2024-03-07T13:25:23;93961.09;;;10.09;76.22
1472;BME280;963;42.644;23.336;2024-03-07T13:30:36;93961.59;;;9.92;75.94
1472;BME280;963;42.644;23.336;2024-03-07T13:33:02;93988.59;;;10.19;75.13
1472;BME280;963;42.644;23.336;2024-03-07T13:35:29;93971.53;;;10.06;74.71
1472;BME280;963;42.644;23.336;2024-03-07T13:37:55;93990.25;;;10.30;74.06
1472;BME280;963;42.644;23.336;2024-03-07T13:40:25;93990.19;;;10.23;74.02
1472;BME280;963;42.644;23.336;2024-03-07T13:42:56;93989.81;;;9.19;74.51